Terminal Aerodrome Forecast
Issued by NWS

Home | Current Version | Previous Version | Text Only | Print | Product List | Glossary Off
Versions: 1 2 3 4 5 6 7 8 9 10 11 12 13 14 15 16 17 18 19 20 21 22 23 24 25 26 27 28 29 30 31 32 33 34 35 36 37 38

000
FTUS43 KLOT 212035 AAC
TAFORD
TAF AMD
KORD 212035Z 2121/2224 18007KT P6SM SCT060 BKN150
     FM212130 15007KT 5SM TSRA SCT050 BKN150CB
     FM212200 01010KT P6SM VCTS SCT040 BKN100CB
     FM212330 VRB06KT P6SM SCT050 BKN120
     FM220200 15006KT 6SM -SHRA VCTS SCT040 BKN100CB
      TEMPO 2202/2203 31020G30KT 1SM TSRA BKN040CB
     FM220500 19008KT 5SM -SHRA VCTS BKN040 BKN080CB
      TEMPO 2205/2209 2SM TSRA SCT015 BKN025CB
     FM221200 24014KT P6SM SCT035 BKN050
     FM221800 34007KT P6SM SCT040
     FM222200 02008KT P6SM BKN040=

USA.gov is the U.S. government's official web portal to all federal, state and local government web resources and services.